Estación de San Ignacio

Ultimos registro cada 15 minutos 68
Estación Fecha / Hora Temperatura Humedad Lluvia Velocidad Dirección Radiación Presion
68 San Ignacio 05-05-2026 16:45 16,7 81 0 0 101 23 1028
67 San Ignacio 05-05-2026 16:30 16,7 81 0 0 101 23 1028
66 San Ignacio 05-05-2026 16:15 16,9 80 0 0 101 39 1027,7
65 San Ignacio 05-05-2026 16:00 17,1 80 0 0 101 54 1027,7
64 San Ignacio 05-05-2026 15:45 17,4 80 0 0 101 127 1027,2
63 San Ignacio 05-05-2026 15:30 17,4 80 0 0 101 127 1027,2
62 San Ignacio 05-05-2026 15:15 17,1 82 0 0 101 165 1027,2
61 San Ignacio 05-05-2026 15:00 16,8 82 0 0 101 132 1027,2
60 San Ignacio 05-05-2026 14:45 16,9 82 0 0 101 135 1027
59 San Ignacio 05-05-2026 14:30 16,9 82 0 0 101 135 1027
58 San Ignacio 05-05-2026 14:15 16,9 83 0 0 101 120 1027,2
57 San Ignacio 05-05-2026 14:00 16,8 83 0 0 101 179 1026,7
56 San Ignacio 05-05-2026 13:45 16,4 83 0 0 101 174 1026,6
55 San Ignacio 05-05-2026 13:30 16,4 83 0 0 101 174 1026,6
54 San Ignacio 05-05-2026 13:15 16,2 83 0 0 101 220 1026,8
53 San Ignacio 05-05-2026 13:00 16,1 83 0 0,4 101 100 1027,5
52 San Ignacio 05-05-2026 12:45 15,9 84 0 0 115 109 1026,8
51 San Ignacio 05-05-2026 12:30 15,9 84 0 0 115 109 1026,8
50 San Ignacio 05-05-2026 12:15 15,8 84 0 0 114 139 1027,3
49 San Ignacio 05-05-2026 12:00 15,7 86 0 0,4 114 178 1027,9
48 San Ignacio 05-05-2026 11:45 15 88 0 0,4 115 195 1028,1
47 San Ignacio 05-05-2026 11:30 15 88 0 0,4 115 195 1028,1
46 San Ignacio 05-05-2026 11:15 14,7 90 0 0 134 172 1028
45 San Ignacio 05-05-2026 11:00 14,4 91 0 0 134 169 1027,6
44 San Ignacio 05-05-2026 10:45 14,1 92 0 0 134 146 1027,8
43 San Ignacio 05-05-2026 10:30 14,1 92 0 0 134 146 1027,8
42 San Ignacio 05-05-2026 10:15 13,8 92 0 0 134 144 1028,1
41 San Ignacio 05-05-2026 10:00 13,3 92 0 0 134 132 1028,2
40 San Ignacio 05-05-2026 09:45 12,6 92 0 0 134 98 1028
39 San Ignacio 05-05-2026 09:30 12,6 92 0 0 134 98 1028
38 San Ignacio 05-05-2026 09:15 12,3 92 0 0 134 60 1028,1
37 San Ignacio 05-05-2026 09:00 12,1 92 0 0 134 51 1028,2
36 San Ignacio 05-05-2026 08:45 11,6 92 0 0 134 25 1028,6
35 San Ignacio 05-05-2026 08:30 11,6 92 0 0 134 25 1028,6
34 San Ignacio 05-05-2026 08:15 11,6 92 0 0 134 19 1029
33 San Ignacio 05-05-2026 08:00 11,6 92 0 0 134 14 1029,1
32 San Ignacio 05-05-2026 07:45 11,6 91 0 0 134 0 1028,9
31 San Ignacio 05-05-2026 07:30 11,6 91 0 0 134 0 1028,9
30 San Ignacio 05-05-2026 07:15 11,7 91 0 0 134 0 1028,9
29 San Ignacio 05-05-2026 07:00 11,8 91 0 0 134 0 1029,4
28 San Ignacio 05-05-2026 06:45 11,9 91 0 0 134 0 1029,7
27 San Ignacio 05-05-2026 06:30 11,9 91 0 0 134 0 1029,7
26 San Ignacio 05-05-2026 06:15 11,9 92 0 0 134 0 1030,1
25 San Ignacio 05-05-2026 06:00 11,8 91 0 0 134 0 1030,1
24 San Ignacio 05-05-2026 05:45 11,5 91 0 0 134 0 1030,4
23 San Ignacio 05-05-2026 05:30 11,5 91 0 0 134 0 1030,4
22 San Ignacio 05-05-2026 05:15 11,6 91 0 0 134 0 1030,4
21 San Ignacio 05-05-2026 05:00 11,6 91 0 0 134 0 1029,8
20 San Ignacio 05-05-2026 04:45 11,7 91 0 0 134 0 1030,3
19 San Ignacio 05-05-2026 04:30 11,7 91 0 0 134 0 1030,3
18 San Ignacio 05-05-2026 04:15 11,8 91 0 0 134 0 1030,3
17 San Ignacio 05-05-2026 04:00 11,8 91 0 0 134 0 1029,9
16 San Ignacio 05-05-2026 03:45 11,7 91 0 0 134 0 1029,5
15 San Ignacio 05-05-2026 03:30 11,7 91 0 0 134 0 1029,5
14 San Ignacio 05-05-2026 03:15 11,6 91 0 0 134 0 1029,4
13 San Ignacio 05-05-2026 03:00 11 91 0 0 134 0 1029,9
12 San Ignacio 05-05-2026 02:45 10,9 91 0 0 134 0 1030,1
11 San Ignacio 05-05-2026 02:30 10,9 91 0 0 134 0 1030,1
10 San Ignacio 05-05-2026 02:15 10,8 91 0 0 134 0 1030,2
9 San Ignacio 05-05-2026 02:00 11 91 0 0 134 0 1030,2
8 San Ignacio 05-05-2026 01:45 11,1 91 0 0 134 0 1030,1
7 San Ignacio 05-05-2026 01:30 11,1 91 0 0 134 0 1030,1
6 San Ignacio 05-05-2026 01:15 11,3 91 0 0 134 0 1030
5 San Ignacio 05-05-2026 01:00 11,4 91 0 0 134 0 1029,9
4 San Ignacio 05-05-2026 00:45 11,3 91 0 0 134 0 1030,4
3 San Ignacio 05-05-2026 00:30 11,3 91 0 0 134 0 1030,4
2 San Ignacio 05-05-2026 00:15 11,4 91 0 0 134 0 1030,6
1 San Ignacio 05-05-2026 00:00 11,4 91 0 0 134 0 1030,9